Time;durP1;ratioP1;P1;durP2;ratioP2;P2;SDS_P1;SDS_P2;PMS_P1;PMS_P2;Temp;Humidity;BMP_temperature;BMP_pressure;BME280_temperature;BME280_humidity;BME280_pressure;Samples;Min_cycle;Max_cycle;Signal;HPM_P1;HPM_P2
2021/04/22 00:00:28;;;;;;;13.80;7.57;;;;;;;8.73;76.61;99092.53;5113625;28;20069;-84
2021/04/22 00:03:04;;;;;;;14.98;9.10;;;;;;;8.71;78.31;99099.97;5112751;28;20096;-84
2021/04/22 00:05:34;;;;;;;12.88;8.93;;;;;;;8.80;76.41;99088.06;5112796;28;20047;-83
2021/04/22 00:08:01;;;;;;;15.38;8.55;;;;;;;8.83;76.93;99089.59;5107482;28;20062;-83
2021/04/22 00:10:39;;;;;;;20.23;7.85;;;;;;;8.71;77.62;99080.97;5114222;28;20058;-83
2021/04/22 00:13:08;;;;;;;15.32;8.77;;;;;;;8.60;77.65;99095.75;5112699;28;20044;-84
2021/04/22 00:15:34;;;;;;;11.10;7.93;;;;;;;8.55;78.52;99081.91;5113107;28;20663;-84
2021/04/22 00:18:01;;;;;;;16.35;7.63;;;;;;;8.43;79.39;99081.38;5113430;28;20058;-83
2021/04/22 00:20:33;;;;;;;11.10;7.72;;;;;;;8.44;79.48;99091.22;5113140;28;20052;-82
2021/04/22 00:22:59;;;;;;;11.05;7.38;;;;;;;8.26;80.00;99096.81;5112425;28;20122;-82
2021/04/22 00:25:25;;;;;;;15.13;8.15;;;;;;;8.13;79.78;99075.69;5112259;28;20054;-83
2021/04/22 00:27:53;;;;;;;12.43;7.57;;;;;;;8.04;80.21;99067.72;5113122;28;20043;-84
2021/04/22 00:30:22;;;;;;;11.48;7.13;;;;;;;8.09;80.04;99079.75;5112976;28;20051;-82
2021/04/22 00:33:02;;;;;;;9.25;7.45;;;;;;;8.36;79.30;99101.22;5113163;28;20062;-84
2021/04/22 00:35:32;;;;;;;14.65;8.35;;;;;;;8.21;79.86;99098.38;5112500;28;20056;-84
2021/04/22 00:38:18;;;;;;;11.50;8.05;;;;;;;8.05;79.59;99083.81;5113271;28;20134;-83
2021/04/22 00:40:57;;;;;;;10.82;7.35;;;;;;;7.90;79.77;99090.94;5112742;28;20062;-83
2021/04/22 00:43:45;;;;;;;12.50;8.90;;;;;;;7.84;79.01;99073.50;5092567;28;20044;-84
2021/04/22 00:46:11;;;;;;;10.05;7.07;;;;;;;7.73;78.69;99107.16;5092274;28;20044;-83
2021/04/22 00:48:40;;;;;;;15.65;8.18;;;;;;;7.44;79.16;99097.66;5092842;28;20499;-82
2021/04/22 00:51:16;;;;;;;13.55;8.55;;;;;;;7.48;79.76;99083.78;5096519;28;20047;-83
2021/04/22 00:53:46;;;;;;;12.88;8.35;;;;;;;7.61;79.77;99111.22;5111163;28;20509;-82
2021/04/22 00:56:18;;;;;;;11.70;8.65;;;;;;;7.55;79.15;99115.41;5112389;28;20056;-83
2021/04/22 00:58:49;;;;;;;14.02;9.18;;;;;;;7.30;79.29;99106.44;5112685;28;20682;-84
2021/04/22 01:01:16;;;;;;;19.33;9.68;;;;;;;7.17;79.78;99106.91;5113402;28;20055;-84
2021/04/22 01:03:42;;;;;;;13.93;8.93;;;;;;;7.02;80.61;99108.53;5113037;28;20112;-84
2021/04/22 01:06:09;;;;;;;13.10;8.43;;;;;;;7.01;80.33;99107.66;5112441;28;20601;-84
2021/04/22 01:08:36;;;;;;;12.27;7.75;;;;;;;7.00;80.12;99124.91;5112783;28;20059;-84
2021/04/22 01:11:05;;;;;;;15.68;8.93;;;;;;;6.76;80.97;99104.03;5112630;28;20050;-83
2021/04/22 01:13:31;;;;;;;12.27;9.23;;;;;;;7.12;79.90;99122.78;5116604;28;20051;-84
2021/04/22 01:15:58;;;;;;;13.73;8.60;;;;;;;7.16;79.63;99126.81;5116047;28;20051;-84
2021/04/22 01:18:25;;;;;;;12.60;9.38;;;;;;;7.13;79.75;99118.19;5116688;28;20131;-84
2021/04/22 01:20:52;;;;;;;12.80;9.65;;;;;;;7.09;80.42;99117.66;5116458;28;20111;-84
2021/04/22 01:23:20;;;;;;;16.15;9.13;;;;;;;7.02;80.86;99133.69;5116509;28;20079;-84
2021/04/22 01:25:49;;;;;;;14.80;8.82;;;;;;;6.78;82.42;99133.59;5115564;28;20044;-83
2021/04/22 01:28:18;;;;;;;16.45;9.80;;;;;;;6.82;83.17;99138.53;5116371;28;20130;-83
2021/04/22 01:30:47;;;;;;;13.80;9.10;;;;;;;6.79;83.08;99113.66;5116192;28;20039;-82
2021/04/22 01:33:16;;;;;;;19.02;9.27;;;;;;;6.99;82.36;99141.31;5115803;28;20043;-82
2021/04/22 01:35:48;;;;;;;14.30;9.23;;;;;;;6.97;82.02;99129.78;5115715;28;20047;-84
2021/04/22 01:38:15;;;;;;;16.20;8.95;;;;;;;6.80;81.99;99115.38;5116014;28;20047;-84
2021/04/22 01:40:43;;;;;;;12.05;8.32;;;;;;;6.80;82.64;99127.00;5116061;28;20051;-83
2021/04/22 01:43:10;;;;;;;13.98;9.05;;;;;;;6.86;83.17;99141.75;5115999;28;20048;-84
2021/04/22 01:45:37;;;;;;;14.57;9.18;;;;;;;6.88;82.07;99132.47;5115403;28;20074;-83
2021/04/22 01:48:04;;;;;;;13.30;9.68;;;;;;;6.88;81.71;99134.31;5119171;27;20051;-83
2021/04/22 01:50:32;;;;;;;11.10;8.45;;;;;;;6.69;83.00;99141.66;5136495;27;20043;-84
2021/04/22 01:53:02;;;;;;;11.80;8.18;;;;;;;6.77;83.14;99140.84;5136343;27;20043;-82
2021/04/22 01:55:30;;;;;;;;;;;;;;;6.83;82.71;99142.06;5136743;27;20458;-83
2021/04/22 01:58:00;;;;;;;15.65;9.30;;;;;;;6.87;81.96;99124.53;5094187;28;20034;-82
2021/04/22 02:00:31;;;;;;;15.00;9.93;;;;;;;6.87;81.47;99122.66;5095466;28;20067;-83
2021/04/22 02:02:57;;;;;;;12.40;8.80;;;;;;;6.97;81.26;99141.47;5095221;28;20117;-83
2021/04/22 02:05:24;;;;;;;15.98;8.80;;;;;;;6.95;81.41;99156.97;5095035;28;20059;-82
2021/04/22 02:07:51;;;;;;;15.73;9.30;;;;;;;6.87;82.43;99140.75;5095179;28;20101;-83
2021/04/22 02:10:17;;;;;;;14.93;9.90;;;;;;;6.78;81.77;99139.84;5095176;28;20048;-83
2021/04/22 02:12:46;;;;;;;17.98;9.98;;;;;;;6.88;81.74;99155.91;5093615;28;20058;-82
2021/04/22 02:15:20;;;;;;;15.38;10.20;;;;;;;6.91;80.59;99148.34;5094126;28;20055;-84
2021/04/22 02:17:47;;;;;;;14.35;9.52;;;;;;;6.98;79.64;99147.72;5094386;28;20056;-83
2021/04/22 02:20:14;;;;;;;16.60;8.73;;;;;;;6.99;79.48;99150.25;5094119;28;20051;-83
2021/04/22 02:22:42;;;;;;;17.65;9.85;;;;;;;7.04;79.91;99136.25;5093115;28;20541;-83
2021/04/22 02:25:11;;;;;;;16.50;10.32;;;;;;;7.06;79.02;99126.09;5093655;28;20044;-83
2021/04/22 02:27:39;;;;;;;13.32;10.10;;;;;;;7.15;79.08;99151.31;5094076;28;20051;-83
2021/04/22 02:30:08;;;;;;;17.15;10.60;;;;;;;7.11;79.33;99137.28;5094008;28;20052;-83
2021/04/22 02:32:35;;;;;;;16.98;10.93;;;;;;;7.24;78.73;99161.16;5094297;28;20063;-83
2021/04/22 02:35:04;;;;;;;16.63;10.50;;;;;;;7.10;78.02;99119.38;5093297;28;20047;-82
2021/04/22 02:37:33;;;;;;;22.73;12.38;;;;;;;7.26;77.07;99132.09;5093730;28;20059;-82
2021/04/22 02:40:00;;;;;;;22.13;12.70;;;;;;;7.38;76.93;99130.78;5093764;28;20051;-82
2021/04/22 02:42:29;;;;;;;18.33;11.45;;;;;;;7.39;75.43;99128.91;5093590;28;20096;-82
2021/04/22 02:44:55;;;;;;;19.58;10.60;;;;;;;7.52;74.53;99142.81;5093045;28;20051;-82
2021/04/22 02:47:22;;;;;;;16.60;11.00;;;;;;;7.62;74.66;99146.22;5093931;28;20048;-82
2021/04/22 02:49:50;;;;;;;17.98;11.98;;;;;;;7.61;74.74;99149.91;5093806;28;20056;-82
2021/04/22 02:52:16;;;;;;;16.35;9.95;;;;;;;7.59;74.94;99157.38;5093706;28;20052;-82
2021/04/22 02:54:43;;;;;;;22.90;12.60;;;;;;;7.54;74.38;99150.75;5095816;28;20044;-82
2021/04/22 02:57:10;;;;;;;19.55;10.52;;;;;;;7.60;74.97;99169.91;5113566;28;20071;-82
2021/04/22 02:59:36;;;;;;;20.55;11.68;;;;;;;7.43;75.21;99157.31;5113236;28;20052;-81
2021/04/22 03:02:03;;;;;;;20.67;13.52;;;;;;;7.49;74.50;99162.06;5113491;28;20487;-82
2021/04/22 03:04:29;;;;;;;22.10;12.95;;;;;;;7.66;74.06;99172.94;5112749;28;20108;-82
2021/04/22 03:06:56;;;;;;;19.08;11.85;;;;;;;7.50;75.07;99171.91;5113398;28;20105;-81
2021/04/22 03:09:24;;;;;;;21.63;12.32;;;;;;;7.44;75.62;99180.66;5113177;28;20392;-81
2021/04/22 03:11:52;;;;;;;26.38;13.77;;;;;;;7.48;74.50;99173.06;5092249;28;20044;-82
2021/04/22 03:14:19;;;;;;;18.58;11.93;;;;;;;7.40;74.74;99160.38;5104701;28;20051;-82
2021/04/22 03:16:47;;;;;;;30.48;12.20;;;;;;;7.42;74.44;99174.56;5113453;28;20044;-83
2021/04/22 03:19:13;;;;;;;18.20;11.45;;;;;;;7.49;74.84;99196.41;5113224;28;20128;-82
2021/04/22 03:21:40;;;;;;;24.15;13.15;;;;;;;7.21;75.85;99173.16;5113495;28;20071;-82
2021/04/22 03:24:09;;;;;;;19.85;12.43;;;;;;;7.36;75.46;99195.03;5112767;28;20051;-82
2021/04/22 03:26:38;;;;;;;27.15;14.35;;;;;;;7.28;75.13;99183.31;5113153;28;20047;-82
2021/04/22 03:29:08;;;;;;;25.23;14.87;;;;;;;7.31;75.41;99189.22;5113059;28;20096;-83
2021/04/22 03:31:34;;;;;;;24.23;14.52;;;;;;;7.16;75.65;99172.78;5113227;28;20653;-82
2021/04/22 03:34:01;;;;;;;23.58;15.40;;;;;;;7.22;75.48;99187.50;5112302;28;20051;-82
2021/04/22 03:36:29;;;;;;;23.65;15.60;;;;;;;7.16;75.51;99185.47;5112401;28;20044;-82
2021/04/22 03:38:55;;;;;;;34.20;15.88;;;;;;;7.11;75.38;99177.00;5112812;28;20047;-82
2021/04/22 03:41:23;;;;;;;28.65;15.55;;;;;;;7.17;74.94;99176.34;5112997;28;20048;-82
2021/04/22 03:44:20;;;;;;;;;;;;;;;;;;;;;
2021/04/22 03:50:21;;;;;;;26.77;14.20;;;;;;;7.10;75.60;99203.16;5082035;28;20528;-84
2021/04/22 03:53:00;;;;;;;22.70;13.23;;;;;;;7.06;75.29;99194.56;5092429;28;20047;-83
2021/04/22 03:55:29;;;;;;;24.90;13.85;;;;;;;7.22;74.22;99212.69;4700098;28;11144024;-83
2021/04/22 03:57:59;;;;;;;27.77;14.67;;;;;;;7.09;74.60;99196.06;5092489;28;20407;-84
2021/04/22 04:00:26;;;;;;;23.08;13.82;;;;;;;7.13;75.10;99219.06;5093059;28;20286;-83
2021/04/22 04:02:52;;;;;;;23.02;13.98;;;;;;;7.05;75.14;99217.19;5093015;28;20051;-83
2021/04/22 04:05:19;;;;;;;27.77;14.75;;;;;;;6.93;75.94;99212.22;5107479;28;20044;-82
2021/04/22 04:07:46;;;;;;;35.00;14.30;;;;;;;6.86;77.25;99212.84;5113548;28;20705;-83
2021/04/22 04:10:13;;;;;;;26.58;15.43;;;;;;;6.87;77.19;99221.81;5113580;28;20054;-83
2021/04/22 04:12:40;;;;;;;28.17;15.75;;;;;;;6.93;77.48;99240.09;5111726;28;20126;-83
2021/04/22 04:15:10;;;;;;;22.48;14.45;;;;;;;6.87;77.56;99230.75;5111185;28;20558;-83
2021/04/22 04:17:36;;;;;;;27.63;14.52;;;;;;;6.94;77.30;99243.63;5113537;28;20256;-80
2021/04/22 04:20:08;;;;;;;26.20;13.93;;;;;;;6.92;77.54;99246.50;5113137;28;20695;-84
2021/04/22 04:22:34;;;;;;;23.63;14.40;;;;;;;6.83;77.49;99245.59;5113279;28;20128;-82
2021/04/22 04:25:00;;;;;;;27.10;15.50;;;;;;;6.79;77.75;99255.03;5111202;28;20058;-87
2021/04/22 04:27:26;;;;;;;26.63;14.80;;;;;;;6.75;77.58;99248.25;5113533;28;20055;-82
2021/04/22 04:29:53;;;;;;;24.90;15.02;;;;;;;6.97;77.16;99260.41;5113049;28;20055;-82
2021/04/22 04:32:20;;;;;;;26.88;15.60;;;;;;;7.00;76.92;99268.19;5113240;28;20048;-82
2021/04/22 04:34:46;;;;;;;24.90;14.88;;;;;;;6.92;77.46;99268.13;5112677;28;20056;-83
2021/04/22 04:37:13;;;;;;;24.52;14.05;;;;;;;6.87;77.04;99265.06;5111429;28;20055;-83
2021/04/22 04:39:39;;;;;;;25.15;14.98;;;;;;;6.79;77.64;99281.19;5113222;28;20050;-82
2021/04/22 04:42:07;;;;;;;22.23;14.60;;;;;;;6.80;77.76;99289.13;5113109;28;20096;-83
2021/04/22 04:44:33;;;;;;;21.25;13.57;;;;;;;6.90;77.47;99306.09;5112367;28;20055;-83
2021/04/22 04:47:00;;;;;;;23.90;14.20;;;;;;;6.97;76.59;99298.22;5116084;28;20124;-84
2021/04/22 04:49:27;;;;;;;24.30;14.85;;;;;;;6.82;77.15;99286.28;5117082;28;20052;-84
2021/04/22 04:51:54;;;;;;;26.42;14.77;;;;;;;6.80;76.97;99291.84;5117557;28;20059;-83
2021/04/22 04:54:20;;;;;;;26.75;15.45;;;;;;;6.87;76.59;99301.03;5116551;28;20055;-83
2021/04/22 04:56:46;;;;;;;24.88;14.98;;;;;;;6.92;76.52;99305.94;5116753;28;20043;-82
2021/04/22 04:59:14;;;;;;;24.63;14.43;;;;;;;6.59;78.15;99302.16;5116850;28;20546;-84
2021/04/22 05:01:40;;;;;;;22.08;13.77;;;;;;;6.55;78.70;99313.28;5117048;28;20419;-84
2021/04/22 05:04:07;;;;;;;28.33;16.75;;;;;;;6.45;78.49;99308.97;5116780;28;20134;-83
2021/04/22 05:06:38;;;;;;;23.02;14.38;;;;;;;6.30;78.77;99298.69;5116830;28;20124;-83
2021/04/22 05:09:05;;;;;;;26.50;14.15;;;;;;;6.46;78.12;99314.19;5117175;28;20059;-84
2021/04/22 05:11:31;;;;;;;25.17;13.73;;;;;;;6.43;78.98;99319.03;5115921;28;20059;-84
2021/04/22 05:13:58;;;;;;;22.95;13.27;;;;;;;6.56;78.36;99333.00;5116531;28;20055;-84
2021/04/22 05:16:24;;;;;;;23.60;13.38;;;;;;;6.60;78.48;99336.28;5116097;28;20043;-84
2021/04/22 05:18:50;;;;;;;21.83;13.77;;;;;;;6.83;77.89;99345.56;5116435;28;20051;-84
2021/04/22 05:21:17;;;;;;;27.25;14.95;;;;;;;6.82;78.03;99345.72;5116161;28;20054;-85
2021/04/22 05:23:44;;;;;;;25.85;15.50;;;;;;;6.93;77.55;99356.31;5116716;28;20043;-84
2021/04/22 05:26:12;;;;;;;25.50;13.57;;;;;;;7.19;76.40;99348.19;5115804;28;20048;-83
2021/04/22 05:28:38;;;;;;;22.17;13.77;;;;;;;7.24;77.62;99362.13;5116288;28;20139;-82
2021/04/22 05:31:04;;;;;;;20.92;13.93;;;;;;;7.47;76.52;99364.28;5116212;28;20047;-83
2021/04/22 05:33:30;;;;;;;26.55;14.07;;;;;;;7.60;76.04;99358.44;5116120;28;20412;-83
2021/04/22 05:35:57;;;;;;;23.73;14.55;;;;;;;7.65;75.83;99353.41;5114494;28;20051;-84
2021/04/22 05:38:23;;;;;;;27.00;14.20;;;;;;;7.81;74.76;99349.91;5116242;28;20046;-83
2021/04/22 05:40:50;;;;;;;26.58;14.88;;;;;;;7.89;75.02;99360.78;5116224;28;20048;-84
2021/04/22 05:43:19;;;;;;;29.55;15.15;;;;;;;7.94;74.10;99354.88;5115940;28;20052;-84
2021/04/22 05:45:46;;;;;;;24.87;15.23;;;;;;;7.98;74.10;99367.91;5115665;28;20052;-84
2021/04/22 05:48:13;;;;;;;26.20;15.00;;;;;;;7.91;73.93;99374.16;5116130;28;20381;-84
2021/04/22 05:50:39;;;;;;;24.35;16.10;;;;;;;7.90;72.93;99361.63;5115893;28;20054;-84
2021/04/22 05:53:05;;;;;;;28.25;15.35;;;;;;;7.85;73.51;99393.75;5115935;28;20533;-84
2021/04/22 05:55:32;;;;;;;25.55;14.57;;;;;;;7.59;74.34;99384.63;5115367;28;20509;-84
2021/04/22 05:58:00;;;;;;;22.73;14.00;;;;;;;7.67;74.84;99388.41;5115549;28;20047;-84
2021/04/22 06:00:28;;;;;;;30.15;14.25;;;;;;;7.58;74.14;99368.56;5115723;28;20051;-84
2021/04/22 06:02:55;;;;;;;30.42;13.73;;;;;;;7.85;74.17;99400.00;5115690;28;20116;-84
2021/04/22 06:05:21;;;;;;;26.85;14.45;;;;;;;7.94;73.40;99392.78;5115149;28;20043;-84
2021/04/22 06:07:50;;;;;;;24.85;14.20;;;;;;;8.12;73.32;99392.69;5115799;28;20063;-84
2021/04/22 06:10:18;;;;;;;26.27;14.52;;;;;;;8.25;72.06;99401.19;5115767;27;20109;-83
2021/04/22 06:12:44;;;;;;;26.58;14.60;;;;;;;8.42;71.59;99398.53;5114601;28;20052;-84
2021/04/22 06:15:49;;;;;;;26.27;14.35;;;;;;;8.30;71.54;99387.16;5115324;28;20051;-83
2021/04/22 06:18:16;;;;;;;23.88;14.63;;;;;;;8.22;71.98;99396.09;5110837;28;20062;-83
2021/04/22 06:20:43;;;;;;;30.50;13.80;;;;;;;7.91;72.98;99423.72;5115694;28;20040;-84
2021/04/22 06:23:12;;;;;;;21.30;13.63;;;;;;;7.94;73.25;99412.56;5115059;28;20435;-81
2021/04/22 06:25:40;;;;;;;18.35;11.18;;;;;;;8.08;72.53;99418.38;5114669;28;20052;-82
2021/04/22 06:28:07;;;;;;;25.02;13.57;;;;;;;8.24;72.23;99425.72;5114962;28;20495;-80
2021/04/22 06:30:33;;;;;;;24.77;12.20;;;;;;;8.20;72.53;99440.59;5114552;28;20109;-81
2021/04/22 06:33:02;;;;;;;26.67;11.82;;;;;;;8.19;71.46;99415.38;5114673;28;20487;-81
2021/04/22 06:35:29;;;;;;;20.65;12.13;;;;;;;8.17;70.99;99436.34;5094057;28;20101;-82
2021/04/22 06:37:55;;;;;;;21.02;12.93;;;;;;;8.62;69.72;99442.47;5093397;28;20103;-83
2021/04/22 06:40:23;;;;;;;23.38;12.32;;;;;;;8.43;69.95;99436.28;5094161;28;20480;-83
2021/04/22 06:42:50;;;;;;;16.73;9.95;;;;;;;8.10;71.83;99444.28;5099037;28;20040;-83
2021/04/22 06:45:17;;;;;;;20.45;12.02;;;;;;;8.29;70.89;99431.50;5113824;28;20059;-82
2021/04/22 06:47:46;;;;;;;22.45;12.50;;;;;;;8.39;70.13;99443.03;5113960;28;20044;-83
2021/04/22 06:50:15;;;;;;;24.30;11.48;;;;;;;8.36;70.90;99440.66;5114487;28;20108;-82
2021/04/22 06:52:42;;;;;;;24.50;10.85;;;;;;;8.58;70.25;99454.66;5114293;28;20040;-84
2021/04/22 06:55:13;;;;;;;25.20;11.30;;;;;;;8.49;69.08;99457.34;5113677;28;20642;-82
2021/04/22 06:57:39;;;;;;;28.95;11.70;;;;;;;8.60;67.78;99452.63;5114882;27;20055;-83
2021/04/22 07:00:11;;;;;;;19.98;10.95;;;;;;;8.66;67.68;99462.81;5113509;28;20357;-82
2021/04/22 07:02:39;;;;;;;27.13;10.82;;;;;;;8.76;66.34;99440.97;5111464;28;20043;-82
2021/04/22 07:05:08;;;;;;;20.80;10.23;;;;;;;8.96;67.54;99471.34;5111557;28;20075;-81
2021/04/22 07:07:46;;;;;;;20.58;10.55;;;;;;;9.18;66.42;99470.69;5113706;28;20043;-81
2021/04/22 07:10:16;;;;;;;18.13;9.90;;;;;;;9.62;64.84;99480.38;5099500;28;20055;-81
2021/04/22 07:12:43;;;;;;;19.25;9.25;;;;;;;9.78;64.83;99479.47;5113531;28;20060;-81
2021/04/22 07:29:05;;;;;;;19.75;8.65;;;;;;;9.52;62.45;99504.94;5113621;28;20042;-81
2021/04/22 07:31:32;;;;;;;15.68;8.57;;;;;;;9.80;62.13;99503.75;5094124;28;20048;-81
2021/04/22 07:33:58;;;;;;;14.73;8.07;;;;;;;9.56;62.00;99503.59;5094248;28;20407;-81
2021/04/22 07:36:24;;;;;;;21.52;8.77;;;;;;;9.55;61.51;99485.63;5112535;28;20039;-82
2021/04/22 07:38:51;;;;;;;18.73;8.32;;;;;;;9.83;60.73;99509.69;5114517;28;20052;-82
2021/04/22 07:41:17;;;;;;;35.75;9.77;;;;;;;9.87;60.60;99497.44;5112016;28;20059;-82
2021/04/22 07:43:44;;;;;;;17.65;7.70;;;;;;;9.89;61.68;99505.41;5095071;28;20047;-82
2021/04/22 07:46:45;;;;;;;14.35;6.88;;;;;;;9.93;60.04;99509.50;5125882;27;20050;-83
2021/04/22 07:49:14;;;;;;;15.85;8.38;;;;;;;10.12;60.23;99507.41;5129555;27;20051;-82
2021/04/22 07:51:40;;;;;;;16.17;7.35;;;;;;;10.40;59.20;99500.59;5114386;28;20433;-81
2021/04/22 07:54:07;;;;;;;11.23;6.18;;;;;;;10.36;59.11;99499.25;5113884;28;20112;-82
2021/04/22 07:56:35;;;;;;;21.02;7.35;;;;;;;10.29;58.28;99503.63;5113174;28;20054;-82
2021/04/22 08:12:24;;;;;;;16.02;6.35;;;;;;;10.78;55.87;99495.31;5053042;28;20047;-82
2021/04/22 08:15:23;;;;;;;16.58;7.13;;;;;;;11.32;54.83;99515.38;5093350;28;20058;-82
2021/04/22 08:17:50;;;;;;;15.65;6.03;;;;;;;10.83;54.79;99513.81;5093511;28;20056;-82
2021/04/22 08:20:20;;;;;;;16.50;6.68;;;;;;;10.57;55.71;99525.84;5114133;28;20442;-82
2021/04/22 08:22:47;;;;;;;16.80;6.88;;;;;;;10.17;57.83;99524.91;5113392;28;20479;-82
2021/04/22 08:42:29;;;;;;;11.13;4.82;;;;;;;10.13;56.43;99542.56;5110324;28;20051;-81
2021/04/22 08:44:56;;;;;;;13.63;5.18;;;;;;;10.06;55.78;99533.44;5106266;28;20516;-83
2021/04/22 08:47:23;;;;;;;12.07;4.65;;;;;;;10.32;54.02;99535.06;5104696;28;20102;-82
2021/04/22 08:49:49;;;;;;;15.38;6.22;;;;;;;10.41;52.50;99537.59;5112573;28;20044;-82
2021/04/22 08:52:20;;;;;;;12.45;5.50;;;;;;;10.46;51.38;99539.78;5111118;28;20530;-82
2021/04/22 08:54:46;;;;;;;10.20;5.15;;;;;;;10.57;52.73;99544.88;5092563;28;20044;-82
2021/04/22 09:01:19;;;;;;;9.73;4.53;;;;;;;10.91;50.42;99546.41;5111480;28;20046;-83
2021/04/22 09:03:51;;;;;;;12.90;4.82;;;;;;;10.72;51.39;99546.81;5112691;28;20048;-83
2021/04/22 09:06:22;;;;;;;17.88;4.07;;;;;;;10.45;51.80;99543.56;5102554;28;20151;-83
2021/04/22 09:09:36;;;;;;;13.88;5.25;;;;;;;10.80;50.45;99555.81;5092890;28;20060;-85
2021/04/22 09:31:54;;;;;;;7.88;3.72;;;;;;;11.16;46.54;99546.28;5093296;28;20106;-84
2021/04/22 09:47:51;;;;;;;11.02;3.83;;;;;;;11.43;46.58;99550.34;5114016;28;20116;-81
2021/04/22 09:50:24;;;;;;;12.32;5.38;;;;;;;11.52;46.99;99542.97;5093962;28;20052;-83
2021/04/22 09:52:54;;;;;;;12.73;4.05;;;;;;;11.55;46.28;99548.06;5093749;28;20138;-83
2021/04/22 09:55:21;;;;;;;19.55;5.50;;;;;;;11.43;46.46;99544.91;5093592;28;20101;-83
2021/04/22 09:57:49;;;;;;;15.50;4.03;;;;;;;11.19;48.35;99528.75;5111532;28;20051;-82
2021/04/22 10:00:22;;;;;;;7.40;3.78;;;;;;;11.42;47.90;99524.16;5105148;27;20065;-84
2021/04/22 10:02:53;;;;;;;19.95;4.53;;;;;;;11.63;47.42;99547.13;5095112;28;20131;-83
2021/04/22 10:05:29;;;;;;;10.93;4.20;;;;;;;11.85;47.12;99545.44;5115816;28;20408;-83
2021/04/22 10:08:04;;;;;;;7.75;3.63;;;;;;;11.69;46.92;99538.25;5095971;28;20048;-83
2021/04/22 10:10:33;;;;;;;17.17;4.60;;;;;;;11.82;45.92;99535.75;5095623;28;20403;-83
2021/04/22 10:13:19;;;;;;;7.03;2.67;;;;;;;11.68;45.17;99545.56;5095427;28;20097;-85
2021/04/22 10:15:50;;;;;;;7.22;3.50;;;;;;;11.90;42.93;99529.38;5095968;28;20115;-83
2021/04/22 10:18:20;;;;;;;8.88;3.88;;;;;;;12.16;44.71;99525.41;5096467;28;20479;-83
2021/04/22 10:20:48;;;;;;;7.28;3.15;;;;;;;12.10;42.56;99524.25;5095634;28;20062;-83
2021/04/22 10:23:36;;;;;;;11.55;3.25;;;;;;;12.16;43.39;99539.03;5111115;28;20820;-84
2021/04/22 10:26:03;;;;;;;5.70;3.05;;;;;;;12.08;38.31;99539.13;5113314;28;20147;-84
2021/04/22 10:28:33;;;;;;;8.07;2.65;;;;;;;12.18;38.96;99546.00;5114149;28;20479;-84
2021/04/22 10:44:38;;;;;;;6.75;2.85;;;;;;;13.01;37.42;99539.56;5094759;28;20043;-82
2021/04/22 10:47:12;;;;;;;11.60;3.88;;;;;;;12.81;39.02;99551.09;5094053;28;20048;-83
2021/04/22 10:49:40;;;;;;;10.63;3.17;;;;;;;12.51;38.27;99536.59;5093111;28;20044;-83
2021/04/22 10:52:10;;;;;;;10.77;2.97;;;;;;;12.63;39.42;99524.19;5092682;28;20071;-82
2021/04/22 10:54:41;;;;;;;9.52;3.35;;;;;;;12.89;38.11;99545.50;5100318;28;20056;-82
2021/04/22 10:57:13;;;;;;;9.30;4.30;;;;;;;12.85;36.30;99537.91;5112925;27;20060;-83
2021/04/22 10:59:43;;;;;;;9.00;3.17;;;;;;;12.75;37.19;99527.25;5113302;28;20039;-83
2021/04/22 11:02:20;;;;;;;11.00;2.88;;;;;;;13.00;36.31;99529.69;5104454;28;20051;-85
2021/04/22 11:04:50;;;;;;;9.10;2.75;;;;;;;13.15;37.88;99532.38;5105048;28;20109;-83
2021/04/22 11:07:21;;;;;;;8.15;3.17;;;;;;;13.16;36.53;99531.31;5113951;28;20050;-83
2021/04/22 11:10:07;;;;;;;;;;;;;;;;;;;;;
2021/04/22 11:12:35;;;;;;;4.72;2.47;;;;;;;13.65;35.45;99519.66;5112870;28;20062;-83
2021/04/22 11:15:44;;;;;;;8.52;2.60;;;;;;;13.52;36.37;99514.94;5115884;28;20475;-84
2021/04/22 11:18:17;;;;;;;10.82;2.83;;;;;;;13.44;34.55;99528.72;5113350;28;20051;-83
2021/04/22 11:20:44;;;;;;;7.43;3.08;;;;;;;13.36;36.15;99528.84;5114382;28;20059;-83
2021/04/22 11:23:15;;;;;;;5.45;2.25;;;;;;;13.12;36.18;99510.94;5114365;28;20403;-84
2021/04/22 11:30:49;;;;;;;5.97;2.40;;;;;;;13.28;33.30;99521.59;5111701;28;20058;-82
2021/04/22 11:33:30;;;;;;;5.50;2.88;;;;;;;13.53;32.69;99522.06;5114308;28;20055;-83
2021/04/22 11:35:57;;;;;;;13.88;2.63;;;;;;;14.12;30.53;99531.84;5092639;28;20071;-83
2021/04/22 11:38:32;;;;;;;6.88;2.33;;;;;;;13.80;32.56;99520.47;5112931;28;20039;-83
2021/04/22 11:44:31;;;;;;;3.65;1.77;;;;;;;13.26;31.84;99529.13;5110638;28;20043;-83
2021/04/22 11:47:12;;;;;;;7.80;2.45;;;;;;;13.61;31.76;99518.41;5101191;28;20368;-82
2021/04/22 11:49:45;;;;;;;5.40;1.83;;;;;;;13.48;31.38;99515.53;5106885;28;20051;-83
2021/04/22 11:52:19;;;;;;;6.70;1.95;;;;;;;13.46;29.47;99515.72;5099213;27;20052;-85
2021/04/22 11:54:46;;;;;;;6.90;2.40;;;;;;;13.68;30.26;99512.97;5093633;28;20044;-83
2021/04/22 11:57:13;;;;;;;9.90;2.97;;;;;;;13.44;30.17;99528.72;5105114;28;20066;-82
2021/04/22 11:59:40;;;;;;;7.93;2.53;;;;;;;13.53;30.02;99513.88;5113801;28;20075;-84
2021/04/22 12:02:09;;;;;;;3.00;1.85;;;;;;;13.99;28.76;99534.47;5113782;28;20070;-83
2021/04/22 12:04:44;;;;;;;6.45;2.30;;;;;;;13.80;25.74;99500.47;5113862;28;20385;-84
2021/04/22 12:07:13;;;;;;;10.05;2.10;;;;;;;13.72;26.68;99492.44;5114386;28;20398;-83
2021/04/22 12:09:42;;;;;;;7.40;2.30;;;;;;;14.14;26.90;99526.19;5114100;28;20128;-83
2021/04/22 12:12:15;;;;;;;7.85;1.80;;;;;;;14.13;23.15;99513.53;5113464;28;20570;-83
2021/04/22 12:14:42;;;;;;;3.95;1.95;;;;;;;14.02;27.14;99508.63;5113888;28;20403;-83
2021/04/22 12:17:23;;;;;;;6.10;1.92;;;;;;;14.23;27.04;99502.25;5113864;28;20478;-82
2021/04/22 12:19:52;;;;;;;4.53;1.70;;;;;;;14.23;27.17;99518.66;5113852;28;20059;-83
2021/04/22 12:22:35;;;;;;;6.28;1.52;;;;;;;14.08;25.90;99530.53;5113560;28;20044;-84
2021/04/22 12:25:05;;;;;;;7.43;1.70;;;;;;;14.20;25.62;99528.09;5109494;28;20043;-84
2021/04/22 12:27:34;;;;;;;6.45;1.88;;;;;;;14.07;25.24;99520.66;5091237;28;20055;-83
2021/04/22 12:30:01;;;;;;;8.05;1.70;;;;;;;14.27;25.49;99519.94;5100041;28;20048;-83
2021/04/22 12:32:30;;;;;;;5.35;1.90;;;;;;;14.47;26.59;99518.19;5110787;28;20132;-84
2021/04/22 12:34:58;;;;;;;6.05;1.98;;;;;;;14.22;26.15;99517.81;5111309;28;20048;-83
2021/04/22 12:37:25;;;;;;;5.63;1.60;;;;;;;14.11;26.56;99516.47;5110757;28;20051;-84
2021/04/22 12:39:56;;;;;;;6.03;1.63;;;;;;;14.27;26.23;99495.31;5111103;28;20407;-83
2021/04/22 12:42:27;;;;;;;2.70;1.40;;;;;;;14.21;26.33;99509.81;5102700;28;20184;-84
2021/04/22 12:45:10;;;;;;;4.18;1.70;;;;;;;14.09;26.61;99485.78;5094861;28;20105;-83
2021/04/22 12:47:39;;;;;;;7.00;2.85;;;;;;;14.48;24.87;99503.47;5101047;28;20054;-83
2021/04/22 12:50:10;;;;;;;7.13;2.03;;;;;;;14.75;26.30;99500.88;5104586;28;20040;-82
2021/04/22 12:52:37;;;;;;;5.07;1.85;;;;;;;15.04;25.44;99488.78;5104775;28;20056;-83
2021/04/22 12:55:07;;;;;;;4.53;1.70;;;;;;;14.71;27.38;99505.09;5108372;28;20047;-84
2021/04/22 12:57:35;;;;;;;4.25;1.52;;;;;;;14.57;26.47;99497.81;5090908;28;20055;-84
2021/04/22 13:00:06;;;;;;;5.80;2.05;;;;;;;14.77;28.13;99474.16;5110522;28;20077;-84
2021/04/22 13:02:40;;;;;;;7.80;1.92;;;;;;;15.17;26.68;99493.44;5110916;28;20044;-84
2021/04/22 13:05:10;;;;;;;7.00;1.67;;;;;;;15.09;27.96;99490.06;5112484;28;20060;-83
2021/04/22 13:07:39;;;;;;;7.10;1.92;;;;;;;15.22;28.52;99499.16;5113819;28;20048;-82
2021/04/22 13:10:09;;;;;;;7.03;2.10;;;;;;;15.10;27.55;99486.25;5096258;28;20113;-82
2021/04/22 13:12:35;;;;;;;;;;;;;;;15.09;28.10;99490.91;5095965;28;20047;-79
2021/04/22 13:15:04;;;;;;;6.13;2.28;;;;;;;14.95;27.33;99494.63;5095695;28;19991;-80
2021/04/22 13:17:30;;;;;;;8.02;2.08;;;;;;;14.89;26.68;99481.75;5092356;28;20043;-80
2021/04/22 13:19:56;;;;;;;5.05;1.65;;;;;;;14.88;27.50;99478.19;5093718;28;20047;-81
2021/04/22 13:22:24;;;;;;;8.73;2.10;;;;;;;15.30;27.48;99494.53;5105482;28;20479;-81
2021/04/22 13:24:50;;;;;;;5.43;2.17;;;;;;;15.05;28.88;99492.34;5111168;28;20039;-81
2021/04/22 13:27:23;;;;;;;10.30;2.15;;;;;;;15.12;27.28;99482.25;5112755;28;20051;-82
2021/04/22 13:29:51;;;;;;;9.02;1.75;;;;;;;14.70;27.10;99473.28;5105509;28;20055;-82